Time;durP1;ratioP1;P1;durP2;ratioP2;P2;SDS_P1;SDS_P2;PMS_P1;PMS_P2;Temp;Humidity;BMP_temperature;BMP_pressure;BME280_temperature;BME280_humidity;BME280_pressure;Samples;Min_cycle;Max_cycle;Signal;HPM_P1;HPM_P2
2023/12/03 00:00:02;;;;;;;26.08;12.32;;;;;;;0.80;100.00;101903.47;6076104;23;20349;-76
2023/12/03 00:02:31;;;;;;;22.58;11.60;;;;;;;0.80;100.00;101901.59;6101428;23;20472;-76
2023/12/03 00:04:58;;;;;;;29.52;13.30;;;;;;;0.81;100.00;101897.88;6076640;23;20019;-76
2023/12/03 00:07:28;;;;;;;28.25;12.65;;;;;;;0.83;100.00;101894.91;6051523;23;20373;-76
2023/12/03 00:09:56;;;;;;;30.92;12.75;;;;;;;0.83;100.00;101887.78;6101773;23;20014;-76
2023/12/03 00:12:23;;;;;;;27.65;13.20;;;;;;;0.83;100.00;101895.66;6101588;23;20015;-76
2023/12/03 00:14:50;;;;;;;24.83;12.73;;;;;;;0.83;100.00;101895.66;6102084;23;20015;-77
2023/12/03 00:17:17;;;;;;;27.08;14.10;;;;;;;0.85;100.00;101898.69;6075875;23;20023;-77
2023/12/03 00:19:43;;;;;;;27.58;13.45;;;;;;;0.86;100.00;101892.34;6101961;23;20014;-77
2023/12/03 00:22:10;;;;;;;35.63;14.57;;;;;;;0.87;100.00;101890.50;6052652;23;20023;-77
2023/12/03 00:24:37;;;;;;;33.70;14.18;;;;;;;0.87;100.00;101888.63;6075529;23;20019;-77
2023/12/03 00:27:05;;;;;;;28.90;13.45;;;;;;;0.89;100.00;101894.28;6101892;23;20461;-77
2023/12/03 00:29:32;;;;;;;27.80;12.95;;;;;;;0.87;100.00;101891.25;6075578;23;20029;-76
2023/12/03 00:31:59;;;;;;;29.75;13.88;;;;;;;0.87;100.00;101893.13;6102173;23;20015;-77
2023/12/03 00:34:25;;;;;;;29.83;14.18;;;;;;;0.89;100.00;101896.16;6101403;23;20053;-77
2023/12/03 00:36:52;;;;;;;29.60;13.75;;;;;;;0.92;100.00;101893.59;6102242;23;20489;-77
2023/12/03 00:39:18;;;;;;;25.08;11.73;;;;;;;0.95;100.00;101902.63;6101768;23;20015;-77
2023/12/03 00:41:45;;;;;;;26.15;12.75;;;;;;;0.97;100.00;101903.81;6101250;23;20019;-77
2023/12/03 00:44:12;;;;;;;25.15;11.73;;;;;;;0.97;100.00;101901.19;6076039;23;20015;-77
2023/12/03 00:46:39;;;;;;;27.55;12.55;;;;;;;0.96;100.00;101898.91;6102888;23;20025;-77
2023/12/03 00:49:06;;;;;;;26.98;12.20;;;;;;;0.97;100.00;101900.44;6102411;23;20047;-77
2023/12/03 00:51:33;;;;;;;27.45;12.23;;;;;;;0.99;100.00;101900.84;6100953;23;20018;-77
2023/12/03 00:54:00;;;;;;;28.73;12.27;;;;;;;1.03;100.00;101898.28;6076227;23;20015;-77
2023/12/03 00:56:26;;;;;;;24.55;11.65;;;;;;;1.01;100.00;101896.03;6101120;23;20469;-77
2023/12/03 00:58:53;;;;;;;27.75;12.20;;;;;;;1.02;100.00;101894.16;6102022;23;20046;-77
2023/12/03 01:01:20;;;;;;;29.05;13.35;;;;;;;1.02;100.00;101902.03;6101802;23;20015;-77
2023/12/03 01:03:46;;;;;;;25.50;12.40;;;;;;;1.02;100.00;101900.16;6101779;23;20021;-77
2023/12/03 01:06:13;;;;;;;28.63;13.13;;;;;;;1.06;100.00;101908.84;6101218;23;20019;-77
2023/12/03 01:08:40;;;;;;;26.42;13.55;;;;;;;1.06;100.00;101908.84;6101337;23;20061;-77
2023/12/03 01:11:06;;;;;;;34.05;14.07;;;;;;;1.06;100.00;101902.84;6101913;23;20015;-77
2023/12/03 01:13:33;;;;;;;30.15;13.50;;;;;;;1.09;100.00;101907.41;6100882;23;20071;-77
2023/12/03 01:16:00;;;;;;;34.35;15.23;;;;;;;1.13;100.00;101910.88;6101928;23;20449;-76
2023/12/03 01:18:26;;;;;;;30.38;14.18;;;;;;;1.14;100.00;101915.00;6101185;23;20546;-76
2023/12/03 01:20:53;;;;;;;32.15;13.85;;;;;;;1.21;100.00;101915.13;6101646;23;20019;-76
2023/12/03 01:23:19;;;;;;;25.92;12.55;;;;;;;1.18;100.00;101919.22;6100700;23;20022;-76
2023/12/03 01:25:46;;;;;;;28.15;13.88;;;;;;;1.24;100.00;101914.44;6101154;23;20019;-76
2023/12/03 01:28:13;;;;;;;32.28;13.85;;;;;;;1.22;100.00;101921.88;6075671;23;20338;-77
2023/12/03 01:30:39;;;;;;;35.33;14.63;;;;;;;1.22;100.00;101922.63;6101527;23;20015;-77
2023/12/03 01:33:06;;;;;;;32.63;14.88;;;;;;;1.25;100.00;101923.81;6101557;23;20071;-77
2023/12/03 01:35:33;;;;;;;30.08;13.75;;;;;;;1.25;100.00;101921.19;6100820;23;20023;-77
2023/12/03 01:38:01;;;;;;;30.98;14.70;;;;;;;1.26;100.00;101935.81;6075804;23;20047;-78
2023/12/03 01:40:28;;;;;;;40.28;14.85;;;;;;;1.25;100.00;101935.06;6100200;23;20787;-77
2023/12/03 01:42:54;;;;;;;28.17;14.48;;;;;;;1.26;100.00;101927.97;6076045;23;20019;-76
2023/12/03 01:45:21;;;;;;;29.35;13.77;;;;;;;1.29;100.00;101940.38;6100640;23;20528;-76
2023/12/03 01:47:47;;;;;;;34.33;15.35;;;;;;;1.29;100.00;101938.53;6100909;23;20102;-76
2023/12/03 01:50:14;;;;;;;31.73;13.95;;;;;;;1.30;100.00;101934.78;6101190;23;20015;-76
2023/12/03 01:52:42;;;;;;;30.88;14.15;;;;;;;1.30;100.00;101932.16;6100476;23;20094;-76
2023/12/03 01:55:11;;;;;;;33.72;16.42;;;;;;;1.33;100.00;101941.97;6101650;23;20449;-76
2023/12/03 01:57:39;;;;;;;34.00;14.52;;;;;;;1.38;100.00;101948.03;6100879;23;20078;-76
2023/12/03 02:00:06;;;;;;;35.30;15.10;;;;;;;1.39;100.00;101941.69;6101595;23;20015;-77
2023/12/03 02:02:38;;;;;;;36.03;15.50;;;;;;;1.41;100.00;101947.34;6101277;23;20083;-77
2023/12/03 02:05:04;;;;;;;39.92;15.60;;;;;;;1.44;100.00;101949.28;6101753;23;20094;-76
2023/12/03 02:07:31;;;;;;;38.67;16.73;;;;;;;1.42;100.00;101948.88;6100713;23;20037;-76
2023/12/03 02:09:59;;;;;;;34.65;15.18;;;;;;;1.42;100.00;101954.13;6101979;23;20019;-75
2023/12/03 02:12:27;;;;;;;34.33;15.38;;;;;;;1.44;100.00;101952.66;6100968;23;20011;-76
2023/12/03 02:14:54;;;;;;;35.75;15.82;;;;;;;1.41;100.00;101950.75;6101534;23;20023;-76
2023/12/03 02:17:20;;;;;;;28.15;14.95;;;;;;;1.43;100.00;101947.78;6101689;23;20038;-77
2023/12/03 02:19:47;;;;;;;37.20;15.10;;;;;;;1.43;100.00;101956.41;6100782;23;20014;-76
2023/12/03 02:22:13;;;;;;;28.75;14.23;;;;;;;1.46;100.00;101960.19;6100607;23;20429;-76
2023/12/03 02:24:40;;;;;;;35.55;15.35;;;;;;;1.50;100.00;101953.91;6100619;23;20099;-76
2023/12/03 02:27:06;;;;;;;35.58;15.32;;;;;;;1.50;100.00;101950.53;6101102;23;20110;-76
2023/12/03 02:29:33;;;;;;;31.60;15.43;;;;;;;1.54;100.00;101952.13;6100987;23;20103;-76
2023/12/03 02:31:59;;;;;;;30.17;14.90;;;;;;;1.53;100.00;101950.59;6101861;23;20021;-76
2023/12/03 02:34:26;;;;;;;33.03;16.08;;;;;;;1.56;100.00;101936.03;6100131;23;20019;-76
2023/12/03 02:36:53;;;;;;;27.08;14.35;;;;;;;1.56;100.00;101952.53;6076188;23;20094;-76
2023/12/03 02:39:19;;;;;;;28.38;14.00;;;;;;;1.56;100.00;101947.28;6101275;23;20022;-76
2023/12/03 02:41:46;;;;;;;33.35;15.43;;;;;;;1.62;100.00;101947.72;6100341;23;20014;-76
2023/12/03 02:44:12;;;;;;;31.13;14.90;;;;;;;1.64;100.00;101953.38;6100739;23;20027;-76
2023/12/03 02:46:39;;;;;;;29.80;14.25;;;;;;;1.68;100.00;101944.47;6100822;23;20077;-76
2023/12/03 02:49:05;;;;;;;29.98;14.77;;;;;;;1.69;100.00;101953.09;6100870;23;20094;-76
2023/12/03 02:51:32;;;;;;;31.00;14.55;;;;;;;1.78;100.00;101942.38;6100628;23;20050;-76
2023/12/03 02:54:00;;;;;;;31.75;15.95;;;;;;;1.76;100.00;101945.34;6102167;23;20019;-77
2023/12/03 02:56:26;;;;;;;35.30;15.65;;;;;;;1.79;100.00;101944.66;6102846;23;20026;-77
2023/12/03 02:58:53;;;;;;;29.45;15.32;;;;;;;1.85;100.00;101958.25;6103736;23;20019;-77
2023/12/03 03:01:19;;;;;;;35.47;15.20;;;;;;;1.90;100.00;101952.72;6103590;23;20043;-75
2023/12/03 03:03:46;;;;;;;33.55;15.15;;;;;;;1.97;100.00;101953.59;6101598;23;20026;-76
2023/12/03 03:06:13;;;;;;;35.33;16.25;;;;;;;2.00;100.00;101947.63;6101778;23;20011;-76
2023/12/03 03:08:39;;;;;;;35.90;16.13;;;;;;;1.99;100.00;101954.00;6101699;23;20019;-76
2023/12/03 03:11:08;;;;;;;30.15;15.35;;;;;;;1.95;100.00;101958.44;6102068;23;20046;-77
2023/12/03 03:13:34;;;;;;;33.15;16.20;;;;;;;1.85;100.00;101958.25;6101523;23;20495;-76
2023/12/03 03:16:01;;;;;;;32.95;16.05;;;;;;;1.79;100.00;101962.28;6102075;23;20019;-77
2023/12/03 03:18:27;;;;;;;29.17;15.10;;;;;;;1.78;100.00;101963.38;6075478;23;20011;-77
2023/12/03 03:20:54;;;;;;;31.70;16.48;;;;;;;1.76;100.00;101966.34;6102078;23;20075;-77
2023/12/03 03:23:20;;;;;;;29.63;15.05;;;;;;;1.74;100.00;101963.31;6101765;23;20079;-77
2023/12/03 03:25:47;;;;;;;26.55;15.50;;;;;;;1.72;100.00;101956.91;6076394;23;20337;-77
2023/12/03 03:28:13;;;;;;;27.02;14.65;;;;;;;1.76;100.00;101962.97;6101561;23;20046;-77
2023/12/03 03:30:40;;;;;;;27.77;15.23;;;;;;;1.79;100.00;101970.91;6101796;23;20026;-77
2023/12/03 03:33:07;;;;;;;26.20;15.00;;;;;;;1.79;100.00;101962.28;6102022;23;20011;-76
2023/12/03 03:35:33;;;;;;;27.33;15.43;;;;;;;1.79;100.00;101967.53;6101893;23;20050;-76
2023/12/03 03:38:00;;;;;;;30.17;17.13;;;;;;;1.75;100.00;101961.47;6101841;23;20015;-76
2023/12/03 03:40:27;;;;;;;29.80;17.20;;;;;;;1.72;100.00;101957.66;6101047;23;20018;-76
2023/12/03 03:42:53;;;;;;;29.15;17.42;;;;;;;1.72;100.00;101967.41;6102250;23;20440;-76
2023/12/03 03:45:20;;;;;;;35.38;18.05;;;;;;;1.71;100.00;101971.91;6101751;23;20074;-76
2023/12/03 03:47:46;;;;;;;30.00;18.48;;;;;;;1.66;100.00;101962.44;6101672;23;20654;-76
2023/12/03 03:50:13;;;;;;;32.72;18.30;;;;;;;1.62;100.00;101968.72;6101765;23;20394;-76
2023/12/03 03:52:39;;;;;;;31.80;18.05;;;;;;;1.60;100.00;101966.44;6101623;23;20022;-77
2023/12/03 03:55:06;;;;;;;32.13;20.25;;;;;;;1.61;100.00;101965.34;6102214;23;20090;-77
2023/12/03 03:57:33;;;;;;;32.17;19.35;;;;;;;1.63;100.00;101960.50;6101371;23;20094;-77
2023/12/03 04:00:00;;;;;;;31.23;19.38;;;;;;;1.64;100.00;101964.66;6101806;23;20094;-77
2023/12/03 04:02:37;;;;;;;27.65;18.00;;;;;;;1.63;100.00;101947.38;6101815;23;20027;-77
2023/12/03 04:05:04;;;;;;;29.77;18.77;;;;;;;1.57;100.00;101959.28;6101809;23;20019;-77
2023/12/03 04:07:31;;;;;;;26.90;18.13;;;;;;;1.50;100.00;101961.78;6075451;23;20015;-77
2023/12/03 04:09:58;;;;;;;31.95;18.95;;;;;;;1.50;100.00;101967.03;6101611;23;20019;-77
2023/12/03 04:12:24;;;;;;;30.10;17.83;;;;;;;1.47;100.00;101965.09;6101020;23;20026;-77
2023/12/03 04:14:51;;;;;;;32.45;18.60;;;;;;;1.42;100.00;101964.63;6101804;23;20015;-77
2023/12/03 04:17:17;;;;;;;28.30;16.83;;;;;;;1.33;100.00;101973.47;6075963;23;20063;-77
2023/12/03 04:19:44;;;;;;;27.73;16.65;;;;;;;1.30;100.00;101974.16;6101281;23;20035;-77
2023/12/03 04:22:10;;;;;;;28.58;17.02;;;;;;;1.28;100.00;101975.59;6101534;23;20019;-77
2023/12/03 04:24:38;;;;;;;27.15;15.50;;;;;;;1.20;100.00;101974.69;6101284;23;20022;-77
2023/12/03 04:27:04;;;;;;;25.17;16.17;;;;;;;1.24;100.00;101970.28;6076292;23;20066;-77
2023/12/03 04:29:31;;;;;;;33.88;15.68;;;;;;;1.25;100.00;101971.03;6100992;23;20019;-77
2023/12/03 04:31:57;;;;;;;30.48;16.48;;;;;;;1.23;100.00;101975.88;6101290;23;20465;-77
2023/12/03 04:34:24;;;;;;;22.63;15.13;;;;;;;1.23;100.00;101968.00;6101245;23;20046;-77
2023/12/03 04:36:51;;;;;;;24.35;14.90;;;;;;;1.22;100.00;101969.84;6101563;23;20019;-77
2023/12/03 04:39:17;;;;;;;26.58;15.57;;;;;;;1.20;100.00;101972.06;6100859;23;20022;-77
2023/12/03 04:41:44;;;;;;;27.13;16.10;;;;;;;1.19;100.00;101973.19;6102792;23;20026;-77
2023/12/03 04:44:10;;;;;;;25.75;15.13;;;;;;;1.19;100.00;101975.81;6103752;23;20475;-77
2023/12/03 04:46:43;;;;;;;32.97;15.85;;;;;;;1.22;100.00;101974.34;6102582;23;20015;-77
2023/12/03 04:49:09;;;;;;;25.80;15.15;;;;;;;1.22;100.00;101984.84;6103336;23;20029;-77
2023/12/03 04:51:36;;;;;;;22.40;14.43;;;;;;;1.22;100.00;101990.84;6103252;23;20003;-77
2023/12/03 04:54:03;;;;;;;25.13;15.00;;;;;;;1.22;100.00;101985.59;6102967;23;20504;-77
2023/12/03 04:56:29;;;;;;;25.50;16.17;;;;;;;1.23;100.00;101991.59;6102514;23;20021;-77
2023/12/03 04:58:56;;;;;;;25.38;15.45;;;;;;;1.21;100.00;101991.19;6103779;23;20022;-77
2023/12/03 05:01:22;;;;;;;24.45;15.60;;;;;;;1.20;100.00;101998.31;6102706;23;20094;-77
2023/12/03 05:03:49;;;;;;;25.73;15.65;;;;;;;1.17;100.00;101993.78;6103754;23;20464;-77
2023/12/03 05:06:16;;;;;;;23.67;15.05;;;;;;;1.11;100.00;101994.38;6104865;23;20424;-77
2023/12/03 05:08:43;;;;;;;24.50;15.07;;;;;;;1.07;100.00;101998.78;6105212;23;20074;-77
2023/12/03 05:11:09;;;;;;;26.08;15.35;;;;;;;1.00;100.00;101994.16;6104929;23;20014;-77
2023/12/03 05:13:36;;;;;;;24.05;15.70;;;;;;;0.89;100.00;101990.53;6081143;23;20014;-77
2023/12/03 05:16:04;;;;;;;29.35;15.20;;;;;;;0.88;100.00;101992.41;6079524;23;20023;-77
2023/12/03 05:18:32;;;;;;;24.92;14.98;;;;;;;0.85;100.00;101992.31;6101403;23;20058;-77
2023/12/03 05:20:58;;;;;;;28.27;15.27;;;;;;;0.78;100.00;101998.19;6103126;23;20023;-77
2023/12/03 05:23:25;;;;;;;23.10;13.43;;;;;;;0.71;100.00;101995.41;6102015;23;20022;-77
2023/12/03 05:25:52;;;;;;;22.08;14.15;;;;;;;0.63;100.00;101991.09;6102630;23;20019;-77
2023/12/03 05:28:19;;;;;;;33.00;15.45;;;;;;;0.56;100.00;101989.09;6102293;23;20055;-77
2023/12/03 05:30:46;;;;;;;24.17;14.20;;;;;;;0.49;100.00;101982.91;6103209;23;20023;-77
2023/12/03 05:33:13;;;;;;;24.60;14.80;;;;;;;0.43;100.00;101987.66;6080462;23;20495;-77
2023/12/03 05:35:40;;;;;;;26.20;13.30;;;;;;;0.40;100.00;101992.84;6111043;23;20025;-77
2023/12/03 05:38:06;;;;;;;21.30;12.68;;;;;;;0.41;100.00;101989.84;6106835;23;20026;-76
2023/12/03 05:40:33;;;;;;;21.45;14.32;;;;;;;0.39;100.00;101991.31;6100942;23;20042;-76
2023/12/03 05:43:00;;;;;;;25.02;14.57;;;;;;;0.36;100.00;101989.38;6075952;23;20018;-76
2023/12/03 05:45:27;;;;;;;27.85;13.68;;;;;;;0.32;100.00;101992.66;6100822;23;20097;-76
2023/12/03 05:47:54;;;;;;;27.08;14.27;;;;;;;0.32;100.00;101991.91;6101655;23;20018;-76
2023/12/03 05:50:21;;;;;;;24.27;13.68;;;;;;;0.29;100.00;101998.56;6101375;23;20027;-76
2023/12/03 05:52:48;;;;;;;24.25;13.77;;;;;;;0.27;100.00;101990.28;6101754;23;20022;-76
2023/12/03 05:55:15;;;;;;;27.33;13.82;;;;;;;0.25;100.00;101992.50;6101314;23;20098;-76
2023/12/03 05:57:41;;;;;;;24.05;14.05;;;;;;;0.20;100.00;101995.34;6100665;23;20023;-76
2023/12/03 06:00:09;;;;;;;24.75;13.82;;;;;;;0.15;100.00;101992.97;6075653;23;20102;-76
2023/12/03 06:02:35;;;;;;;25.38;13.48;;;;;;;0.14;100.00;101988.84;6101018;23;20021;-76
2023/12/03 06:05:02;;;;;;;25.33;14.43;;;;;;;0.14;100.00;101991.47;6101154;23;20453;-76
2023/12/03 06:07:29;;;;;;;23.38;13.63;;;;;;;0.13;100.00;102000.41;6100693;23;20016;-76
2023/12/03 06:09:55;;;;;;;23.73;13.75;;;;;;;0.10;100.00;102005.56;6101595;23;20417;-76
2023/12/03 06:12:22;;;;;;;30.88;13.05;;;;;;;0.08;100.00;102013.00;6100329;23;20065;-76
2023/12/03 06:14:48;;;;;;;26.90;14.10;;;;;;;0.04;100.00;102010.28;6075740;23;20043;-76
2023/12/03 06:17:15;;;;;;;28.50;14.45;;;;;;;0.02;100.00;102015.09;6100986;23;20090;-76
2023/12/03 06:19:42;;;;;;;25.23;13.10;;;;;;;0.01;100.00;102008.34;6100822;23;20027;-76
2023/12/03 06:22:08;;;;;;;22.38;12.93;;;;;;;-0.03;100.00;102013.50;6101478;23;20015;-76
2023/12/03 06:24:35;;;;;;;26.75;13.98;;;;;;;-0.08;100.00;102019.00;6075227;23;20106;-76
2023/12/03 06:27:02;;;;;;;23.33;12.85;;;;;;;-0.13;100.00;102015.84;6100865;23;20026;-77
2023/12/03 06:29:29;;;;;;;23.55;13.13;;;;;;;-0.16;100.00;102014.66;6100614;23;20022;-77
2023/12/03 06:31:55;;;;;;;25.45;13.43;;;;;;;-0.17;100.00;102017.59;6102242;23;20071;-77
2023/12/03 06:34:22;;;;;;;26.63;13.93;;;;;;;-0.18;100.00;102022.09;6103730;23;20453;-79
2023/12/03 06:36:49;;;;;;;25.85;13.65;;;;;;;-0.19;100.00;102022.41;6080583;23;20047;-79
2023/12/03 06:39:15;;;;;;;25.00;14.00;;;;;;;-0.15;100.00;102029.28;6082727;23;20027;-80
2023/12/03 06:41:43;;;;;;;24.88;13.52;;;;;;;-0.18;100.00;102029.94;6110837;23;20496;-80
2023/12/03 06:44:10;;;;;;;25.02;13.50;;;;;;;-0.17;100.00;102033.31;6106436;23;20432;-77
2023/12/03 06:46:39;;;;;;;24.63;13.38;;;;;;;-0.20;100.00;102033.97;6105514;23;20051;-78
2023/12/03 06:49:06;;;;;;;26.92;13.85;;;;;;;-0.24;100.00;102022.66;6079920;23;20031;-78
2023/12/03 06:51:33;;;;;;;26.95;14.23;;;;;;;-0.25;100.00;102023.75;6104576;23;20114;-78
2023/12/03 06:54:02;;;;;;;26.45;13.48;;;;;;;-0.27;100.00;102018.84;6106484;23;20091;-78
2023/12/03 06:56:28;;;;;;;30.20;13.77;;;;;;;-0.30;100.00;102029.97;6103779;23;20014;-78
2023/12/03 06:58:55;;;;;;;30.83;15.27;;;;;;;-0.31;100.00;102028.47;6105570;23;20026;-77
2023/12/03 07:01:22;;;;;;;28.25;14.07;;;;;;;-0.34;100.00;102023.88;6104388;23;20015;-78
2023/12/03 07:03:48;;;;;;;25.77;14.40;;;;;;;-0.41;100.00;102024.47;6079996;23;20796;-78
2023/12/03 07:06:15;;;;;;;28.92;14.23;;;;;;;-0.47;100.00;102025.81;6103812;23;20019;-77
2023/12/03 07:08:44;;;;;;;25.40;13.07;;;;;;;-0.49;100.00;102029.84;6109483;23;20936;-80
2023/12/03 07:11:13;;;;;;;30.20;15.10;;;;;;;-0.54;100.00;102035.31;6111116;23;20022;-79
2023/12/03 07:13:41;;;;;;;30.00;14.52;;;;;;;-0.56;100.00;102034.88;6110308;23;20444;-80
2023/12/03 07:16:10;;;;;;;31.17;16.08;;;;;;;-0.59;100.00;102038.16;6109906;23;20494;-78
2023/12/03 07:18:40;;;;;;;32.17;15.93;;;;;;;-0.64;100.00;102041.75;6079801;23;20812;-78
2023/12/03 07:21:08;;;;;;;29.00;14.88;;;;;;;-0.68;100.00;102041.66;6103655;23;20364;-78
2023/12/03 07:23:35;;;;;;;28.45;14.25;;;;;;;-0.71;100.00;102044.16;6103898;23;20022;-78
2023/12/03 07:26:08;;;;;;;28.85;14.70;;;;;;;-0.73;100.00;102046.34;6077902;23;20094;-77
2023/12/03 07:28:35;;;;;;;30.48;14.57;;;;;;;-0.75;100.00;102033.59;6102867;23;20027;-78
2023/12/03 07:31:04;;;;;;;28.00;14.65;;;;;;;-0.76;100.00;102039.16;6101982;23;20425;-77
2023/12/03 07:33:31;;;;;;;26.35;13.18;;;;;;;-0.77;100.00;102038.41;6102249;23;20655;-77
2023/12/03 07:35:58;;;;;;;29.23;14.93;;;;;;;-0.79;100.00;102030.13;6103080;23;20030;-77
2023/12/03 07:38:24;;;;;;;29.48;15.23;;;;;;;-0.81;100.00;102024.50;6107112;23;20023;-79
2023/12/03 07:40:51;;;;;;;26.25;14.27;;;;;;;-0.84;100.00;102032.22;6072771;23;20824;-77
2023/12/03 07:43:18;;;;;;;29.38;12.98;;;;;;;-0.85;100.00;102028.09;6076140;23;20015;-78
2023/12/03 07:45:44;;;;;;;36.03;13.63;;;;;;;-0.89;100.00;102025.38;6076302;23;20015;-78
2023/12/03 07:48:11;;;;;;;34.40;15.85;;;;;;;-0.91;100.00;102026.78;6075732;23;20019;-80
2023/12/03 07:50:37;;;;;;;30.52;16.38;;;;;;;-0.91;100.00;102034.63;6076565;23;20026;-80
2023/12/03 07:53:07;;;;;;;33.75;16.45;;;;;;;-0.90;100.00;102025.69;6080417;23;20090;-80
2023/12/03 07:55:33;;;;;;;34.17;15.35;;;;;;;-0.90;100.00;102036.16;6081035;23;20098;-80
2023/12/03 07:58:00;;;;;;;29.70;14.77;;;;;;;-0.91;100.00;102040.63;6085164;23;20065;-80
2023/12/03 08:00:27;;;;;;;30.98;15.82;;;;;;;-0.90;100.00;102036.16;6087996;23;20026;-80
2023/12/03 08:02:54;;;;;;;32.88;15.20;;;;;;;-0.90;100.00;102041.38;6091099;23;20026;-80
2023/12/03 08:05:22;;;;;;;40.53;16.45;;;;;;;-0.89;100.00;102040.28;6078596;23;20814;-80
2023/12/03 08:07:48;;;;;;;28.98;14.48;;;;;;;-0.86;100.00;102050.88;6054568;23;20028;-81
2023/12/03 08:10:15;;;;;;;38.78;16.58;;;;;;;-0.85;100.00;102052.38;6080426;23;20457;-81
2023/12/03 08:12:41;;;;;;;34.13;15.80;;;;;;;-0.85;100.00;102047.16;6052160;23;20030;-80
2023/12/03 08:15:08;;;;;;;32.28;15.75;;;;;;;-0.83;100.00;102049.44;6078768;23;20012;-80
2023/12/03 08:17:38;;;;;;;31.05;15.38;;;;;;;-0.80;100.00;102056.63;6084507;23;20023;-80
2023/12/03 08:20:06;;;;;;;36.60;16.70;;;;;;;-0.81;100.00;102053.25;6081343;23;20015;-80
2023/12/03 08:22:33;;;;;;;31.23;14.18;;;;;;;-0.83;100.00;102052.06;6082346;23;20015;-80
2023/12/03 08:25:00;;;;;;;30.77;13.80;;;;;;;-0.84;100.00;102061.75;6084589;23;20803;-81
2023/12/03 08:27:28;;;;;;;29.17;15.10;;;;;;;-0.83;100.00;102065.13;6082717;23;20039;-81
2023/12/03 08:29:54;;;;;;;33.72;15.40;;;;;;;-0.80;100.00;102067.09;6085405;23;20098;-81
2023/12/03 08:32:21;;;;;;;29.00;14.45;;;;;;;-0.77;100.00;102061.19;6083351;23;20448;-81
2023/12/03 08:34:47;;;;;;;34.22;15.10;;;;;;;-0.72;100.00;102058.34;6082268;23;20087;-81
2023/12/03 08:37:14;;;;;;;35.17;15.10;;;;;;;-0.68;100.00;102059.97;6091046;23;19999;-81
2023/12/03 08:39:41;;;;;;;31.35;14.73;;;;;;;-0.62;100.00;102064.97;6096651;23;20030;-81
2023/12/03 08:42:08;;;;;;;34.97;14.82;;;;;;;-0.59;100.00;102059.84;6070308;23;20015;-81
2023/12/03 08:44:35;;;;;;;33.40;14.75;;;;;;;-0.58;100.00;102061.38;6113732;23;20026;-81
2023/12/03 08:47:02;;;;;;;31.38;14.27;;;;;;;-0.55;100.00;102063.31;6089091;23;20017;-81
2023/12/03 08:49:28;;;;;;;30.95;14.35;;;;;;;-0.53;100.00;102074.22;6116424;23;20043;-81
2023/12/03 08:51:55;;;;;;;33.25;14.30;;;;;;;-0.48;100.00;102070.63;6090319;23;20015;-81
2023/12/03 08:54:22;;;;;;;29.88;15.07;;;;;;;-0.46;100.00;102076.28;6093281;23;20019;-81
2023/12/03 08:56:48;;;;;;;28.63;14.20;;;;;;;-0.43;100.00;102078.22;6092538;23;20055;-81
2023/12/03 08:59:15;;;;;;;29.95;14.65;;;;;;;-0.41;100.00;102083.91;6097542;23;20019;-83
2023/12/03 09:01:44;;;;;;;32.17;15.57;;;;;;;-0.36;100.00;102073.19;6051433;23;20015;-80
2023/12/03 09:04:12;;;;;;;35.88;15.65;;;;;;;-0.34;100.00;102084.06;6116745;23;20014;-79
2023/12/03 09:06:40;;;;;;;31.08;14.88;;;;;;;-0.30;100.00;102086.78;6109427;23;20161;-82
2023/12/03 09:09:06;;;;;;;30.08;14.32;;;;;;;-0.25;100.00;102079.47;6112243;23;20015;-83
2023/12/03 09:11:35;;;;;;;27.00;13.57;;;;;;;-0.22;100.00;102078.03;6110957;23;20023;-83
2023/12/03 09:14:02;;;;;;;31.02;15.13;;;;;;;-0.17;100.00;102085.66;6112152;23;20039;-82
2023/12/03 09:16:29;;;;;;;34.08;14.80;;;;;;;-0.16;100.00;102087.94;6057835;23;20007;-83
2023/12/03 09:18:56;;;;;;;32.83;15.00;;;;;;;-0.10;100.00;102081.38;6106947;23;20019;-82
2023/12/03 09:21:23;;;;;;;28.55;14.18;;;;;;;-0.04;100.00;102082.69;6107682;23;20460;-82
2023/12/03 09:23:50;;;;;;;32.65;14.45;;;;;;;-0.01;100.00;102078.63;6057147;23;20426;-82
2023/12/03 09:26:17;;;;;;;34.17;14.63;;;;;;;0.00;100.00;102080.16;6080346;23;20043;-82
2023/12/03 09:28:43;;;;;;;33.75;15.25;;;;;;;0.01;100.00;102076.41;6080968;23;20054;-81
2023/12/03 09:31:10;;;;;;;28.67;13.45;;;;;;;0.06;100.00;102075.41;6079623;23;20480;-81
2023/12/03 09:33:37;;;;;;;28.83;15.00;;;;;;;0.05;100.00;102066.03;6077488;23;20018;-79
2023/12/03 09:36:04;;;;;;;26.17;12.93;;;;;;;0.05;100.00;102072.03;6079919;23;20019;-81
2023/12/03 09:38:30;;;;;;;29.98;14.73;;;;;;;0.06;100.00;102070.19;6106214;23;20015;-81
2023/12/03 09:41:00;;;;;;;33.63;13.80;;;;;;;0.06;100.00;102070.94;6056070;23;20023;-80
2023/12/03 09:43:30;;;;;;;31.00;13.88;;;;;;;0.09;100.00;102069.50;6106519;23;20011;-81
2023/12/03 09:45:58;;;;;;;31.80;14.55;;;;;;;0.15;100.00;102061.06;6081179;23;20011;-80
2023/12/03 09:48:30;;;;;;;26.10;13.80;;;;;;;0.14;100.00;102056.94;6107359;23;20016;-77
2023/12/03 09:50:59;;;;;;;29.10;14.02;;;;;;;0.13;100.00;102068.50;6078698;23;20030;-81
2023/12/03 09:53:30;;;;;;;28.17;12.70;;;;;;;0.12;100.00;102063.59;6081507;23;20492;-81
2023/12/03 09:55:57;;;;;;;26.67;14.27;;;;;;;0.13;100.00;102067.75;6081648;23;20899;-81
2023/12/03 09:58:24;;;;;;;26.52;12.48;;;;;;;0.16;100.00;102057.34;6080621;23;20015;-81
2023/12/03 10:00:53;;;;;;;30.20;12.82;;;;;;;0.19;100.00;102059.31;6084198;23;20038;-81
2023/12/03 10:03:22;;;;;;;29.00;13.68;;;;;;;0.23;100.00;102062.78;6088363;23;20015;-82
2023/12/03 10:05:49;;;;;;;24.70;12.80;;;;;;;0.31;100.00;102063.72;6055607;23;20033;-79
2023/12/03 10:08:16;;;;;;;23.48;10.93;;;;;;;0.37;100.00;102059.00;6108729;23;20026;-81
2023/12/03 10:10:48;;;;;;;26.58;12.88;;;;;;;0.37;100.00;102062.38;6079144;23;20023;-81
2023/12/03 10:13:17;;;;;;;25.83;12.77;;;;;;;0.39;100.00;102059.44;6084463;23;20490;-80
2023/12/03 10:15:45;;;;;;;28.60;13.18;;;;;;;0.38;100.00;102068.38;6081275;23;20025;-80
2023/12/03 10:18:11;;;;;;;34.72;13.57;;;;;;;0.37;100.00;102059.75;6083360;23;20025;-79
2023/12/03 10:20:39;;;;;;;26.92;13.00;;;;;;;0.40;100.00;102058.34;6110935;23;20026;-81
2023/12/03 10:23:13;;;;;;;26.60;13.57;;;;;;;0.44;100.00;102057.28;6085102;23;20556;-81
2023/12/03 10:25:40;;;;;;;26.65;12.93;;;;;;;0.50;100.00;102055.19;6111283;23;20011;-81
2023/12/03 10:28:09;;;;;;;28.67;13.38;;;;;;;0.49;100.00;102058.91;6061476;23;20058;-80
2023/12/03 10:30:39;;;;;;;25.98;12.02;;;;;;;0.52;100.00;102055.59;6108812;23;20102;-81
2023/12/03 10:33:05;;;;;;;25.27;12.00;;;;;;;0.57;99.97;102047.50;6104824;23;20468;-80
2023/12/03 10:35:36;;;;;;;24.63;12.68;;;;;;;0.57;99.86;102035.16;6104344;23;20018;-81
2023/12/03 10:38:07;;;;;;;23.10;11.77;;;;;;;0.60;99.26;102042.34;6080666;23;20019;-81
2023/12/03 10:40:34;;;;;;;24.25;11.32;;;;;;;0.62;98.89;102047.25;6080065;23;20082;-81
2023/12/03 10:43:02;;;;;;;21.98;11.13;;;;;;;0.66;98.50;102040.22;6080324;23;20019;-81
2023/12/03 10:45:30;;;;;;;16.45;10.20;;;;;;;0.68;97.97;102042.50;6054990;23;20023;-81
2023/12/03 10:48:00;;;;;;;21.35;11.05;;;;;;;0.71;97.69;102037.34;6080172;23;20120;-81
2023/12/03 10:50:29;;;;;;;18.95;9.73;;;;;;;0.75;97.18;102034.81;6079721;23;20074;-81
2023/12/03 10:52:58;;;;;;;17.90;10.70;;;;;;;0.77;97.06;102043.84;6109432;23;20027;-81
2023/12/03 10:55:25;;;;;;;26.08;11.15;;;;;;;0.79;96.50;102039.03;6107515;23;20026;-81
2023/12/03 10:58:14;;;;;;;23.98;11.52;;;;;;;0.82;96.19;102040.94;6107546;23;20018;-81
2023/12/03 11:00:47;;;;;;;21.40;10.32;;;;;;;0.84;95.55;102033.50;6079586;23;20019;-81
2023/12/03 11:03:23;;;;;;;21.05;10.93;;;;;;;0.81;95.88;102028.94;6106411;23;20066;-81
2023/12/03 11:05:52;;;;;;;22.45;10.90;;;;;;;0.81;95.25;102023.69;6104470;23;20019;-81